createdAt,value
2018-09-10T00:03:23.195Z,101711.19
2018-09-10T00:06:47.614Z,101713.50
2018-09-10T00:10:13.965Z,101712.66
2018-09-10T00:13:38.413Z,101717.38
2018-09-10T00:17:02.868Z,101712.78
2018-09-10T00:20:27.308Z,101703.29
2018-09-10T00:23:51.744Z,101698.03
2018-09-10T00:27:16.176Z,101696.66
2018-09-10T00:30:40.600Z,101700.66
2018-09-10T00:34:05.094Z,101705.56
2018-09-10T00:37:29.484Z,101712.77
2018-09-10T00:40:53.916Z,101723.56
2018-09-10T00:44:18.329Z,101731.05
2018-09-10T00:47:42.729Z,101730.26
2018-09-10T00:51:07.345Z,101727.16
2018-09-10T00:54:31.811Z,101726.13
2018-09-10T00:57:56.239Z,101725.91
2018-09-10T01:01:20.742Z,101732.28
2018-09-10T01:04:45.148Z,101741.63
2018-09-10T01:08:09.629Z,101747.39
2018-09-10T01:11:34.176Z,101737.32
2018-09-10T01:14:58.650Z,101753.83
2018-09-10T01:18:23.119Z,101752.74
2018-09-10T01:21:47.547Z,101751.69
2018-09-10T01:25:11.992Z,101757.53
2018-09-10T01:28:36.401Z,101761.11
2018-09-10T01:32:00.890Z,101765.19
2018-09-10T01:35:25.319Z,101758.44
2018-09-10T01:38:49.791Z,101758.33
2018-09-10T01:42:14.239Z,101753.77
2018-09-10T01:45:38.701Z,101743.59
2018-09-10T01:49:03.142Z,101753.00
2018-09-10T01:52:28.405Z,101756.23
2018-09-10T01:55:52.820Z,101755.30
2018-09-10T01:59:17.249Z,101744.75
2018-09-10T02:02:41.676Z,101747.28
2018-09-10T02:06:06.091Z,101759.56
2018-09-10T02:09:30.520Z,101758.96
2018-09-10T02:12:54.928Z,101767.39
2018-09-10T02:16:19.404Z,101764.41
2018-09-10T02:19:43.788Z,101750.14
2018-09-10T02:23:08.219Z,101751.62
2018-09-10T02:26:32.644Z,101745.45
2018-09-10T02:29:57.045Z,101743.81
2018-09-10T02:33:21.533Z,101743.08
2018-09-10T02:36:45.969Z,101739.98
2018-09-10T02:40:10.396Z,101737.02
2018-09-10T02:43:34.830Z,101744.84
2018-09-10T02:46:59.306Z,101739.70
2018-09-10T02:50:23.907Z,101743.92
2018-09-10T02:53:48.325Z,101753.94
2018-09-10T02:57:12.787Z,101763.13
2018-09-10T03:00:37.267Z,101762.03
2018-09-10T03:04:01.703Z,101758.80
2018-09-10T03:07:26.179Z,101761.63
2018-09-10T03:10:50.613Z,101768.91
2018-09-10T03:14:15.071Z,101764.28
2018-09-10T03:17:39.523Z,101773.51
2018-09-10T03:21:03.982Z,101768.09
2018-09-10T03:24:28.462Z,101768.41
2018-09-10T03:27:52.922Z,101777.24
2018-09-10T03:31:17.325Z,101787.13
2018-09-10T03:34:41.762Z,101789.22
2018-09-10T03:38:06.195Z,101789.48
2018-09-10T03:41:30.737Z,101795.34
2018-09-10T03:44:55.211Z,101800.27
2018-09-10T03:48:19.704Z,101804.63
2018-09-10T03:51:44.275Z,101805.09
2018-09-10T03:55:08.761Z,101810.83
2018-09-10T03:58:33.250Z,101824.48
2018-09-10T04:01:57.672Z,101820.98
2018-09-10T04:05:22.150Z,101827.24
2018-09-10T04:08:46.597Z,101823.87
2018-09-10T04:12:11.008Z,101817.81
2018-09-10T04:15:35.445Z,101815.59
2018-09-10T04:18:59.910Z,101810.67
2018-09-10T04:22:24.354Z,101812.36
2018-09-10T04:25:48.866Z,101818.72
2018-09-10T04:29:13.224Z,101824.05
2018-09-10T04:32:37.682Z,101816.98
2018-09-10T04:36:02.142Z,101815.84
2018-09-10T04:39:26.569Z,101813.63
2018-09-10T04:42:50.983Z,101808.16
2018-09-10T04:46:15.428Z,101809.94
2018-09-10T04:49:39.988Z,101816.13
2018-09-10T04:53:04.334Z,101829.89
2018-09-10T04:56:29.022Z,101825.17
2018-09-10T04:59:53.480Z,101827.76
2018-09-10T05:03:17.939Z,101829.39
2018-09-10T05:06:42.387Z,101838.09
2018-09-10T05:10:13.076Z,101842.48
2018-09-10T05:13:38.582Z,101841.19
2018-09-10T05:21:06.256Z,101847.00
2018-09-10T05:24:30.780Z,101847.61
2018-09-10T05:27:55.256Z,101851.58
2018-09-10T05:31:19.673Z,101841.43
2018-09-10T05:34:44.183Z,101846.12
2018-09-10T05:38:08.601Z,101855.44
2018-09-10T05:41:33.088Z,101855.33
2018-09-10T05:44:57.633Z,101865.73
2018-09-10T05:48:22.071Z,101882.59
2018-09-10T05:51:46.640Z,101891.28
2018-09-10T05:55:11.235Z,101907.52
2018-09-10T05:58:35.663Z,101915.58
2018-09-10T06:02:00.129Z,101909.28
2018-09-10T06:05:24.538Z,101902.17
2018-09-10T06:08:49.235Z,101903.16
2018-09-10T06:12:13.562Z,101903.17
2018-09-10T06:15:37.976Z,101891.24
2018-09-10T06:19:02.404Z,101888.36
2018-09-10T06:22:26.821Z,101871.77
2018-09-10T06:25:51.271Z,101883.09
2018-09-10T06:29:15.797Z,101902.17
2018-09-10T06:32:40.189Z,101910.61
2018-09-10T06:36:04.644Z,101907.11
2018-09-10T06:39:29.054Z,101909.58
2018-09-10T06:42:53.486Z,101904.42
2018-09-10T06:46:17.989Z,101888.94
2018-09-10T06:49:42.455Z,101882.84
2018-09-10T06:53:06.934Z,101892.95
2018-09-10T06:56:31.368Z,101888.95
2018-09-10T06:59:55.817Z,101897.50
2018-09-10T07:03:20.240Z,101903.91
2018-09-10T07:06:44.719Z,101918.87
2018-09-10T07:10:09.425Z,101929.42
2018-09-10T07:13:33.867Z,101931.30
2018-09-10T07:16:59.154Z,101926.68
2018-09-10T07:20:23.621Z,101923.78
2018-09-10T07:23:48.062Z,101926.42
2018-09-10T07:27:12.527Z,101917.63
2018-09-10T07:30:36.971Z,101909.25
2018-09-10T07:34:01.534Z,101919.11
2018-09-10T07:37:26.007Z,101910.64
2018-09-10T07:40:50.435Z,101903.86
2018-09-10T07:44:14.964Z,101907.63
2018-09-10T07:47:39.362Z,101910.17
2018-09-10T07:51:03.807Z,101904.32
2018-09-10T07:54:28.291Z,101899.55
2018-09-10T07:57:52.702Z,101910.27
2018-09-10T08:01:17.141Z,101925.69
2018-09-10T08:04:41.680Z,101921.80
2018-09-10T08:08:06.282Z,101920.39
2018-09-10T08:11:30.726Z,101922.94
2018-09-10T08:14:55.162Z,101924.02
2018-09-10T08:18:19.615Z,101930.55
2018-09-10T08:21:44.019Z,101927.07
2018-09-10T08:25:08.557Z,101935.59
2018-09-10T08:28:33.174Z,101936.58
2018-09-10T08:31:57.644Z,101946.22
2018-09-10T08:35:22.095Z,101941.70
2018-09-10T08:38:46.543Z,101952.00
2018-09-10T08:42:11.002Z,101954.73
2018-09-10T08:45:35.603Z,101948.55
2018-09-10T08:49:00.065Z,101951.50
2018-09-10T08:52:24.622Z,101947.98
2018-09-10T08:55:49.252Z,101938.09
2018-09-10T08:59:13.642Z,101951.72
2018-09-10T09:02:38.087Z,101951.63
2018-09-10T09:06:02.832Z,101961.89
2018-09-10T09:09:27.217Z,101964.91
2018-09-10T09:12:51.885Z,101960.88
2018-09-10T09:16:16.340Z,101955.30
2018-09-10T09:19:40.815Z,101957.80
2018-09-10T09:23:05.299Z,101953.00
2018-09-10T09:26:30.156Z,101968.13
2018-09-10T09:29:54.716Z,101973.14
2018-09-10T09:33:19.060Z,101962.97
2018-09-10T09:36:48.627Z,101962.29
2018-09-10T09:40:18.306Z,101963.05
2018-09-10T09:43:47.907Z,101955.59
2018-09-10T09:47:12.355Z,101963.91
2018-09-10T09:50:36.864Z,101957.04
2018-09-10T09:54:01.321Z,101957.91
2018-09-10T09:57:25.749Z,101961.17
2018-09-10T10:00:50.564Z,101956.30
2018-09-10T10:04:15.266Z,101966.69
2018-09-10T10:07:39.777Z,101960.84
2018-09-10T10:11:04.654Z,101967.25
2018-09-10T10:14:29.085Z,101967.04
2018-09-10T10:17:53.561Z,101963.59
2018-09-10T10:21:18.096Z,101963.69
2018-09-10T10:24:42.631Z,101969.95
2018-09-10T10:28:07.146Z,101966.91
2018-09-10T10:31:31.624Z,101970.18
2018-09-10T10:34:56.099Z,101957.05
2018-09-10T10:38:20.563Z,101961.20
2018-09-10T10:41:45.010Z,101969.82
2018-09-10T10:45:09.495Z,101970.48
2018-09-10T10:48:33.912Z,101969.04
2018-09-10T10:51:58.460Z,101974.89
2018-09-10T10:55:22.870Z,101967.91
2018-09-10T10:58:47.409Z,101969.48
2018-09-10T11:02:11.910Z,101965.30
2018-09-10T11:06:07.550Z,101961.37
2018-09-10T11:09:31.986Z,101956.86
2018-09-10T11:12:56.442Z,101963.75
2018-09-10T11:16:20.866Z,101967.41
2018-09-10T11:19:45.416Z,101957.36
2018-09-10T11:23:09.885Z,101952.06
2018-09-10T11:26:34.333Z,101942.94
2018-09-10T11:29:58.751Z,101957.88
2018-09-10T11:33:23.194Z,101948.75
2018-09-10T11:36:47.699Z,101948.41
2018-09-10T11:40:12.180Z,101954.96
2018-09-10T11:43:36.632Z,101956.28
2018-09-10T11:47:01.129Z,101958.56
2018-09-10T11:50:25.719Z,101958.74
2018-09-10T11:53:50.174Z,101949.57
2018-09-10T11:57:14.666Z,101954.78
2018-09-10T12:00:39.830Z,101962.74
2018-09-10T12:04:04.315Z,101968.95
2018-09-10T12:07:28.765Z,101972.21
2018-09-10T12:10:53.187Z,101973.09
2018-09-10T12:14:17.603Z,101974.11
2018-09-10T12:17:42.024Z,101973.59
2018-09-10T12:21:06.645Z,101973.05
2018-09-10T12:24:31.161Z,101974.44
2018-09-10T12:27:55.689Z,101978.66
2018-09-10T12:31:20.122Z,101984.23
2018-09-10T12:34:44.573Z,101990.52
2018-09-10T12:38:09.037Z,101981.52
2018-09-10T12:41:33.519Z,101989.94
2018-09-10T12:44:57.980Z,101990.69
2018-09-10T12:48:22.466Z,101985.59
2018-09-10T12:51:46.907Z,101981.94
2018-09-10T12:55:11.396Z,101974.70
2018-09-10T12:58:35.818Z,101972.43
2018-09-10T13:02:00.301Z,101972.95
2018-09-10T13:05:24.767Z,101964.55
2018-09-10T13:08:49.588Z,101967.20
2018-09-10T13:12:14.028Z,101976.50
2018-09-10T13:15:38.743Z,101968.22
2018-09-10T13:19:03.202Z,101965.19
2018-09-10T13:22:27.727Z,101962.15
2018-09-10T13:25:52.137Z,101969.94
2018-09-10T13:29:16.603Z,101980.02
2018-09-10T13:32:41.025Z,101964.57
2018-09-10T13:36:05.546Z,101960.52
2018-09-10T13:39:30.000Z,101957.16
2018-09-10T13:42:54.701Z,101958.83
2018-09-10T13:46:19.308Z,101968.52
2018-09-10T13:49:46.639Z,101961.05
2018-09-10T13:53:11.096Z,101968.03
2018-09-10T13:56:38.512Z,101971.53
2018-09-10T14:00:03.366Z,101963.03
2018-09-10T14:03:27.927Z,101960.41
2018-09-10T14:06:52.460Z,101950.27
2018-09-10T14:10:17.094Z,101945.80
2018-09-10T14:13:41.573Z,101948.39
2018-09-10T14:17:06.650Z,101942.52
2018-09-10T14:20:31.267Z,101941.13
2018-09-10T14:23:55.779Z,101941.30
2018-09-10T14:27:20.340Z,101943.84
2018-09-10T14:30:45.299Z,101944.27
2018-09-10T14:34:09.869Z,101955.92
2018-09-10T14:37:34.324Z,101961.02
2018-09-10T14:41:03.003Z,101955.76
2018-09-10T14:44:27.540Z,101970.81
2018-09-10T14:47:51.995Z,101983.15
2018-09-10T14:51:16.450Z,101982.31
2018-09-10T14:54:40.941Z,101970.56
2018-09-10T14:58:05.458Z,101963.41
2018-09-10T15:01:29.925Z,101957.67
2018-09-10T15:04:54.403Z,101973.14
2018-09-10T15:08:19.050Z,101968.32
2018-09-10T15:11:43.607Z,101981.52
2018-09-10T15:15:08.158Z,101979.65
2018-09-10T15:18:32.844Z,101981.63
2018-09-10T15:21:57.167Z,101986.36
2018-09-10T15:25:21.565Z,101980.77
2018-09-10T15:28:46.140Z,101981.77
2018-09-10T15:32:10.964Z,101982.84
2018-09-10T15:35:35.490Z,101979.70
2018-09-10T15:38:59.927Z,101981.96
2018-09-10T15:42:24.471Z,101972.10
2018-09-10T15:45:48.870Z,101966.95
2018-09-10T15:49:13.415Z,101967.60
2018-09-10T15:52:37.841Z,101962.41
2018-09-10T15:56:02.577Z,101959.87
2018-09-10T15:59:27.277Z,101955.03
2018-09-10T16:02:52.330Z,101960.08
2018-09-10T16:06:16.957Z,101962.27
2018-09-10T16:09:41.432Z,101966.10
2018-09-10T16:13:06.066Z,101963.50
2018-09-10T16:16:30.736Z,101965.09
2018-09-10T16:19:55.262Z,101964.72
2018-09-10T16:23:19.739Z,101961.57
2018-09-10T16:26:44.219Z,101963.48
2018-09-10T16:30:08.750Z,101954.41
2018-09-10T16:33:33.279Z,101946.14
2018-09-10T16:36:57.772Z,101938.84
2018-09-10T16:40:22.236Z,101922.88
2018-09-10T16:43:46.714Z,101922.30
2018-09-10T16:47:11.319Z,101931.94
2018-09-10T16:50:35.871Z,101930.05
2018-09-10T16:54:00.465Z,101936.81
2018-09-10T16:57:25.180Z,101940.88
2018-09-10T17:00:49.635Z,101938.87
2018-09-10T17:04:14.055Z,101943.66
2018-09-10T17:07:38.464Z,101953.12
2018-09-10T17:11:02.872Z,101952.42
2018-09-10T17:14:27.298Z,101962.05
2018-09-10T17:17:51.747Z,101952.94
2018-09-10T17:21:16.220Z,101945.75
2018-09-10T17:24:40.735Z,101944.50
2018-09-10T17:28:05.133Z,101936.13
2018-09-10T17:31:29.603Z,101921.44
2018-09-10T17:34:53.981Z,101925.98
2018-09-10T17:38:18.463Z,101933.91
2018-09-10T17:41:42.895Z,101926.19
2018-09-10T17:45:07.455Z,101936.16
2018-09-10T17:48:31.868Z,101944.73
2018-09-10T17:51:56.326Z,101947.24
2018-09-10T17:55:20.806Z,101952.37
2018-09-10T17:58:45.241Z,101967.62
2018-09-10T18:02:09.690Z,101979.50
2018-09-10T18:05:34.142Z,101983.39
2018-09-10T18:08:59.191Z,101999.45
2018-09-10T18:12:23.619Z,101997.28
2018-09-10T18:15:48.027Z,101993.31
2018-09-10T18:19:12.465Z,101985.58
2018-09-10T18:22:37.315Z,101988.27
2018-09-10T18:26:01.748Z,101993.64
2018-09-10T18:29:26.172Z,101999.11
2018-09-10T18:32:50.602Z,101990.47
2018-09-10T18:36:15.044Z,101986.02
2018-09-10T18:39:39.474Z,101982.86
2018-09-10T18:43:03.877Z,101980.80
2018-09-10T18:46:28.331Z,101981.38
2018-09-10T18:49:52.739Z,101975.05
2018-09-10T18:53:17.221Z,101959.94
2018-09-10T18:56:41.741Z,101945.58
2018-09-10T19:00:06.654Z,101951.67
2018-09-10T19:06:54.810Z,101946.41
2018-09-10T19:10:19.355Z,101942.05
2018-09-10T19:13:43.852Z,101944.39
2018-09-10T19:17:08.379Z,101937.14
2018-09-10T19:20:33.225Z,101920.67
2018-09-10T19:23:57.652Z,101930.95
2018-09-10T19:27:22.176Z,101935.82
2018-09-10T19:30:46.578Z,101937.01
2018-09-10T19:34:11.021Z,101943.20
2018-09-10T19:37:35.527Z,101946.05
2018-09-10T19:41:00.017Z,101950.30
2018-09-10T19:44:24.432Z,101943.04
2018-09-10T19:47:49.112Z,101953.62
2018-09-10T19:51:13.539Z,101955.49
2018-09-10T19:54:37.996Z,101953.03
2018-09-10T19:58:02.496Z,101957.09
2018-09-10T20:01:27.010Z,101952.14
2018-09-10T20:04:51.426Z,101953.56
2018-09-10T20:08:15.904Z,101955.77
2018-09-10T20:11:40.438Z,101956.64
2018-09-10T20:15:04.985Z,101962.01
2018-09-10T20:18:29.574Z,101968.43
2018-09-10T20:21:54.175Z,101964.30
2018-09-10T20:25:18.636Z,101966.92
2018-09-10T20:28:43.234Z,101975.47
2018-09-10T20:32:08.579Z,101968.31
2018-09-10T20:35:33.031Z,101976.02
2018-09-10T20:38:57.526Z,101980.22
2018-09-10T20:42:22.046Z,101981.11
2018-09-10T20:45:46.543Z,101976.48
2018-09-10T20:49:10.929Z,101989.84
2018-09-10T20:52:35.360Z,101987.04
2018-09-10T20:55:59.952Z,101982.22
2018-09-10T20:59:24.392Z,101989.72
2018-09-10T21:02:48.814Z,101996.55
2018-09-10T21:06:13.267Z,102006.25
2018-09-10T21:09:37.723Z,102008.25
2018-09-10T21:13:02.218Z,102007.94
2018-09-10T21:16:26.618Z,102002.73
2018-09-10T21:19:51.022Z,101999.05
2018-09-10T21:23:15.459Z,102005.42
2018-09-10T21:26:39.850Z,102008.66
2018-09-10T21:30:04.302Z,102012.12
2018-09-10T21:33:28.723Z,102018.86
2018-09-10T21:36:53.161Z,102027.17
2018-09-10T21:40:17.615Z,102030.16
2018-09-10T21:43:42.020Z,102018.08
2018-09-10T21:47:06.691Z,102017.62
2018-09-10T21:50:31.148Z,102023.17
2018-09-10T21:53:55.536Z,102014.84
2018-09-10T21:57:19.969Z,102011.94
2018-09-10T22:00:48.452Z,102007.99
2018-09-10T22:04:12.903Z,102010.17
2018-09-10T22:07:37.312Z,102009.61
2018-09-10T22:11:01.767Z,102005.36
2018-09-10T22:14:26.197Z,102014.06
2018-09-10T22:17:50.731Z,102014.83
2018-09-10T22:21:15.599Z,102006.01
2018-09-10T22:24:40.124Z,102007.87
2018-09-10T22:28:04.565Z,102006.98
2018-09-10T22:31:29.120Z,102005.22
2018-09-10T22:34:53.615Z,102004.72
2018-09-10T22:38:18.030Z,101994.05
2018-09-10T22:41:43.033Z,101996.91
2018-09-10T22:45:07.489Z,102002.92
2018-09-10T22:48:31.967Z,102004.34
2018-09-10T22:51:56.404Z,102002.89
2018-09-10T22:55:20.851Z,102020.41
2018-09-10T22:58:45.247Z,102018.14
2018-09-10T23:02:09.750Z,102017.84
2018-09-10T23:05:34.164Z,102010.20
2018-09-10T23:08:58.618Z,102012.76
2018-09-10T23:12:23.239Z,102014.61
2018-09-10T23:15:47.691Z,102009.58
2018-09-10T23:19:12.150Z,101999.92
2018-09-10T23:22:36.564Z,101993.23
2018-09-10T23:26:01.026Z,102000.95
2018-09-10T23:29:25.480Z,102002.64
2018-09-10T23:32:49.909Z,101999.08
2018-09-10T23:36:14.461Z,101991.86
2018-09-10T23:39:38.872Z,101994.74
2018-09-10T23:43:03.273Z,101996.94
2018-09-10T23:46:27.698Z,102000.75
2018-09-10T23:49:52.149Z,101994.92
2018-09-10T23:53:16.556Z,101994.05
2018-09-10T23:56:41.164Z,101994.09
